Time;durP1;ratioP1;P1;durP2;ratioP2;P2;SDS_P1;SDS_P2;PMS_P1;PMS_P2;Temp;Humidity;BMP_temperature;BMP_pressure;BME280_temperature;BME280_humidity;BME280_pressure;Samples;Min_cycle;Max_cycle;Signal;HPM_P1;HPM_P2
2022/03/26 13:53:20;;;;;;;14.07;11.77;;;;;;;18.44;37.12;101755.56;5138591;27;20402;-78
2022/03/26 13:55:48;;;;;;;18.10;12.70;;;;;;;18.42;37.17;101760.31;5119777;27;20883;-78
2022/03/26 13:58:22;;;;;;;18.27;13.30;;;;;;;19.00;36.11;101759.75;5116091;28;20466;-79
2022/03/26 14:00:49;;;;;;;18.10;11.17;;;;;;;18.52;37.28;101754.78;5108993;27;20495;-76
2022/03/26 14:03:16;;;;;;;16.57;11.80;;;;;;;18.29;38.34;101754.41;5095957;28;20451;-79
2022/03/26 14:05:44;;;;;;;15.10;11.80;;;;;;;18.74;37.72;101750.75;5095218;28;20470;-78
2022/03/26 14:08:12;;;;;;;20.17;12.67;;;;;;;18.41;38.41;101745.88;5096289;28;20450;-79
2022/03/26 14:10:42;;;;;;;15.00;11.50;;;;;;;18.83;38.13;101738.13;5087215;28;20455;-79
2022/03/26 14:13:10;;;;;;;19.47;11.80;;;;;;;18.58;38.27;101746.03;5076458;28;20467;-79
2022/03/26 14:15:38;;;;;;;17.40;12.30;;;;;;;18.80;38.20;101747.38;5075107;28;20464;-79
2022/03/26 14:18:06;;;;;;;17.90;13.13;;;;;;;18.46;38.84;101740.00;5074785;28;20444;-78
2022/03/26 14:20:33;;;;;;;18.57;12.60;;;;;;;18.38;38.90;101735.41;5074796;28;20489;-78
2022/03/26 14:23:01;;;;;;;17.23;10.90;;;;;;;18.24;39.33;101731.38;5075525;28;20479;-78
2022/03/26 14:25:29;;;;;;;16.83;12.53;;;;;;;18.10;39.71;101728.34;5074565;28;20537;-79
2022/03/26 14:27:58;;;;;;;14.80;12.10;;;;;;;18.35;39.17;101733.00;5074978;28;20931;-79
2022/03/26 14:30:25;;;;;;;15.43;11.73;;;;;;;18.14;39.72;101721.59;5075050;28;20437;-80
2022/03/26 14:32:52;;;;;;;21.37;13.00;;;;;;;18.80;38.56;101720.28;5075208;28;20448;-79
2022/03/26 14:35:19;;;;;;;16.10;11.57;;;;;;;17.95;40.43;101717.19;5074714;28;20486;-79
2022/03/26 14:37:46;;;;;;;14.57;11.30;;;;;;;18.32;39.89;101718.91;5075333;28;20462;-78
2022/03/26 14:40:14;;;;;;;19.60;11.30;;;;;;;18.57;39.37;101719.94;5074003;28;20467;-79
2022/03/26 14:42:41;;;;;;;15.30;12.43;;;;;;;17.84;40.83;101716.34;5074986;28;20494;-76
2022/03/26 14:45:11;;;;;;;12.27;10.43;;;;;;;18.37;39.93;101722.00;5055010;28;20507;-77
2022/03/26 14:47:38;;;;;;;15.20;11.23;;;;;;;18.69;39.24;101723.25;5054391;28;20460;-79
2022/03/26 14:50:06;;;;;;;12.60;9.53;;;;;;;18.84;39.03;101719.00;5054908;28;20434;-77
2022/03/26 14:52:34;;;;;;;11.80;10.23;;;;;;;19.12;38.37;101714.25;5074296;28;20582;-79
2022/03/26 14:55:01;;;;;;;14.50;10.80;;;;;;;18.80;38.79;101710.31;5074843;28;20893;-79
2022/03/26 14:57:28;;;;;;;13.67;10.67;;;;;;;18.26;40.41;101714.94;5073536;28;20480;-80
2022/03/26 14:59:55;;;;;;;14.90;10.73;;;;;;;18.23;40.61;101716.13;5085738;28;20453;-79
2022/03/26 15:02:23;;;;;;;15.63;11.60;;;;;;;18.29;40.34;101702.97;5090901;28;20494;-79
2022/03/26 15:04:50;;;;;;;14.73;10.40;;;;;;;18.47;39.73;101700.22;5061023;28;20468;-79
2022/03/26 15:07:17;;;;;;;15.93;11.63;;;;;;;18.55;40.10;101708.44;5059936;28;20476;-79
2022/03/26 15:09:44;;;;;;;15.10;9.43;;;;;;;18.96;39.63;101712.31;5061775;28;20433;-79
2022/03/26 15:12:12;;;;;;;16.30;10.43;;;;;;;18.51;40.40;101704.34;5061046;28;20484;-79
2022/03/26 15:14:39;;;;;;;17.07;11.03;;;;;;;18.44;40.28;101704.97;5061867;28;20449;-78
2022/03/26 15:17:06;;;;;;;12.67;10.70;;;;;;;18.52;40.34;101708.75;5060310;28;20572;-79
2022/03/26 15:19:34;;;;;;;14.17;11.40;;;;;;;18.00;41.93;101704.91;5060688;28;20453;-78
2022/03/26 15:22:01;;;;;;;15.40;11.03;;;;;;;17.99;41.72;101707.78;5061072;28;20513;-79
2022/03/26 15:24:29;;;;;;;15.43;10.40;;;;;;;17.92;42.56;101701.28;5064223;28;20436;-79
2022/03/26 15:26:56;;;;;;;16.07;12.17;;;;;;;17.49;43.23;101706.31;5064196;28;20519;-78
2022/03/26 15:29:23;;;;;;;16.83;11.17;;;;;;;17.61;43.47;101699.72;5065006;28;20460;-79
2022/03/26 15:31:51;;;;;;;17.43;12.20;;;;;;;17.81;43.10;101697.75;5061494;28;20515;-79
2022/03/26 15:34:18;;;;;;;14.47;11.50;;;;;;;17.96;42.80;101699.94;5060398;28;21042;-79
2022/03/26 15:36:46;;;;;;;16.33;10.90;;;;;;;18.17;42.65;101705.06;5059731;28;20548;-79
2022/03/26 15:39:13;;;;;;;14.53;11.90;;;;;;;18.01;42.32;101701.19;5060947;28;20417;-79
2022/03/26 15:41:40;;;;;;;15.50;11.77;;;;;;;17.98;42.66;101701.47;5059794;28;20936;-78
2022/03/26 15:44:08;;;;;;;21.03;14.33;;;;;;;18.40;42.26;101691.88;5061055;28;20425;-79
2022/03/26 15:46:35;;;;;;;20.37;13.70;;;;;;;18.01;42.82;101701.19;5060030;28;20468;-80
2022/03/26 15:49:02;;;;;;;21.03;13.83;;;;;;;17.77;43.11;101696.34;5059313;28;20457;-79
2022/03/26 15:51:29;;;;;;;16.00;12.67;;;;;;;18.30;42.44;101691.13;5060199;28;20496;-79
2022/03/26 15:53:57;;;;;;;15.93;11.77;;;;;;;18.77;41.81;101697.09;5060679;28;20438;-79
2022/03/26 15:56:24;;;;;;;13.60;12.20;;;;;;;18.77;41.75;101688.94;5060863;28;20530;-79
2022/03/26 15:58:51;;;;;;;18.13;12.20;;;;;;;18.29;42.91;101700.25;5061899;28;20432;-78
2022/03/26 16:01:18;;;;;;;14.70;12.27;;;;;;;18.21;43.33;101696.47;5061059;28;20477;-78
2022/03/26 16:03:45;;;;;;;16.33;11.60;;;;;;;17.89;43.89;101699.72;5060436;28;20559;-79
2022/03/26 16:06:11;;;;;;;14.60;11.30;;;;;;;17.90;44.42;101703.25;5060760;28;20481;-78
2022/03/26 16:08:38;;;;;;;18.20;12.40;;;;;;;17.41;44.84;101715.19;5061795;28;20676;-78
2022/03/26 16:11:06;;;;;;;16.03;11.10;;;;;;;17.42;45.01;101707.94;5060872;28;20485;-78
2022/03/26 16:13:33;;;;;;;14.40;11.57;;;;;;;17.31;45.28;101712.53;5061339;28;20433;-79
2022/03/26 16:16:02;;;;;;;14.63;10.80;;;;;;;17.48;44.52;101710.03;5059553;28;20479;-78
2022/03/26 16:18:29;;;;;;;12.07;9.13;;;;;;;17.45;45.26;101707.63;5059944;28;20495;-78
2022/03/26 16:20:55;;;;;;;14.83;10.43;;;;;;;17.28;45.27;101710.13;5061041;28;21046;-76
2022/03/26 16:23:22;;;;;;;15.47;10.30;;;;;;;17.33;44.83;101708.84;5061216;28;20476;-77
2022/03/26 16:25:50;;;;;;;11.97;9.80;;;;;;;17.37;44.62;101710.22;5060932;28;20472;-77
2022/03/26 16:28:18;;;;;;;14.10;11.90;;;;;;;17.41;45.08;101709.78;5061690;28;20464;-76
2022/03/26 16:30:45;;;;;;;14.80;12.50;;;;;;;17.43;44.92;101709.63;5060349;28;20473;-77
2022/03/26 16:33:12;;;;;;;14.03;12.00;;;;;;;17.48;44.83;101710.03;5060421;28;20877;-77
2022/03/26 16:35:39;;;;;;;11.97;9.30;;;;;;;17.09;45.36;101708.34;5060717;28;21096;-76
2022/03/26 16:38:06;;;;;;;16.17;12.10;;;;;;;17.38;44.91;101703.84;5061363;28;20468;-78
2022/03/26 16:40:34;;;;;;;12.50;10.57;;;;;;;17.50;44.60;101705.34;5060401;28;20523;-79
2022/03/26 16:43:03;;;;;;;13.33;10.87;;;;;;;17.38;44.80;101701.97;5060974;28;20866;-77
2022/03/26 16:45:33;;;;;;;13.97;10.67;;;;;;;17.36;45.00;101701.28;5059760;28;20505;-79
2022/03/26 16:48:00;;;;;;;14.90;10.30;;;;;;;17.08;45.52;101706.66;5060061;28;20453;-79
2022/03/26 16:50:30;;;;;;;13.87;9.50;;;;;;;16.94;45.79;101702.56;5059799;28;20472;-79
2022/03/26 16:52:57;;;;;;;13.33;9.93;;;;;;;16.87;46.42;101701.47;5060674;28;20489;-79
2022/03/26 16:55:24;;;;;;;12.47;9.13;;;;;;;16.93;46.16;101710.81;5059801;28;20441;-79
2022/03/26 16:57:51;;;;;;;16.10;10.43;;;;;;;16.94;46.58;101717.91;5060659;28;20803;-78
2022/03/26 17:00:18;;;;;;;11.00;8.30;;;;;;;16.90;46.65;101711.94;5059952;28;20467;-78
2022/03/26 17:02:46;;;;;;;12.90;9.40;;;;;;;16.83;47.24;101710.81;5059626;28;20520;-79
2022/03/26 17:05:15;;;;;;;14.33;8.80;;;;;;;16.76;47.77;101713.22;5059334;28;20466;-78
2022/03/26 17:07:42;;;;;;;13.03;8.77;;;;;;;16.65;48.52;101713.41;5060330;28;21028;-80
2022/03/26 17:10:09;;;;;;;12.20;8.77;;;;;;;16.65;48.70;101712.56;5059965;28;20981;-79
2022/03/26 17:12:35;;;;;;;12.63;9.00;;;;;;;16.69;48.97;101717.50;5060078;28;20524;-77
2022/03/26 17:15:02;;;;;;;13.50;10.77;;;;;;;16.60;49.89;101714.84;5060698;28;20468;-79
2022/03/26 17:17:30;;;;;;;15.07;10.07;;;;;;;16.35;50.39;101712.59;5059310;28;20526;-78
2022/03/26 17:19:58;;;;;;;14.10;10.57;;;;;;;16.40;50.39;101714.84;5059960;28;20471;-78
2022/03/26 17:22:25;;;;;;;13.20;10.23;;;;;;;16.45;50.43;101715.25;5059534;28;20832;-79
2022/03/26 17:24:52;;;;;;;13.07;10.47;;;;;;;16.24;51.40;101717.28;5060113;28;20426;-78
2022/03/26 17:27:19;;;;;;;14.90;11.30;;;;;;;16.14;51.56;101725.34;5059051;28;20536;-79
2022/03/26 17:29:46;;;;;;;13.63;9.30;;;;;;;16.23;51.66;101726.34;5060241;28;20524;-78
2022/03/26 17:32:13;;;;;;;14.17;9.30;;;;;;;16.15;52.15;101719.81;5059335;28;20526;-78
2022/03/26 17:34:41;;;;;;;16.57;10.97;;;;;;;16.11;52.29;101722.94;5059061;28;20467;-79
2022/03/26 17:37:12;;;;;;;11.83;8.90;;;;;;;16.23;52.22;101724.53;5059043;28;20561;-79
2022/03/26 17:39:39;;;;;;;14.20;9.50;;;;;;;16.25;52.19;101724.34;5059879;28;20525;-78
2022/03/26 17:42:06;;;;;;;13.70;9.73;;;;;;;16.15;52.59;101733.31;5058610;28;21007;-79
2022/03/26 17:44:33;;;;;;;12.00;9.10;;;;;;;16.13;52.72;101729.06;5059916;28;20456;-79
2022/03/26 17:47:00;;;;;;;13.77;9.70;;;;;;;16.15;53.21;101730.63;5059034;28;20464;-78
2022/03/26 17:49:27;;;;;;;11.30;8.90;;;;;;;16.05;53.55;101732.44;5059432;28;20437;-78
2022/03/26 17:51:54;;;;;;;11.40;9.10;;;;;;;15.99;53.81;101725.78;5059037;28;20481;-79
2022/03/26 17:54:22;;;;;;;10.70;8.30;;;;;;;16.09;53.48;101731.19;5057369;28;20554;-79
2022/03/26 17:56:49;;;;;;;16.93;8.80;;;;;;;15.82;54.65;101727.28;5058546;28;20473;-79
2022/03/26 17:59:16;;;;;;;9.33;6.93;;;;;;;15.82;54.98;101735.38;5060137;28;20428;-79
2022/03/26 18:01:43;;;;;;;15.63;8.80;;;;;;;15.57;55.65;101734.03;5058743;28;21080;-79
2022/03/26 18:04:11;;;;;;;12.43;8.80;;;;;;;15.98;54.79;101740.25;5057969;28;20534;-79
2022/03/26 18:06:38;;;;;;;12.93;8.40;;;;;;;15.65;55.75;101741.41;5058383;28;20879;-79
2022/03/26 18:09:05;;;;;;;11.77;8.60;;;;;;;15.68;55.74;101743.84;5059675;28;20417;-79
2022/03/26 18:11:33;;;;;;;11.20;8.30;;;;;;;15.90;55.33;101745.50;5058325;28;20497;-79
2022/03/26 18:14:00;;;;;;;12.07;8.83;;;;;;;15.80;55.77;101744.63;5058870;28;20449;-79
2022/03/26 18:16:29;;;;;;;10.23;9.13;;;;;;;15.82;55.71;101734.53;5058655;28;20479;-78
2022/03/26 18:18:56;;;;;;;15.03;8.30;;;;;;;15.76;55.93;101749.44;5058347;28;20448;-78
2022/03/26 18:21:22;;;;;;;12.43;9.10;;;;;;;15.91;55.58;101746.34;5059104;28;20465;-78
2022/03/26 18:23:49;;;;;;;11.77;9.30;;;;;;;15.70;56.10;101749.09;5058954;28;20547;-79
2022/03/26 18:26:17;;;;;;;11.87;8.03;;;;;;;15.60;56.61;101752.59;5058574;28;20492;-79
2022/03/26 18:28:45;;;;;;;8.03;6.80;;;;;;;15.57;56.67;101755.59;5038797;28;20438;-78
2022/03/26 18:31:12;;;;;;;12.13;7.13;;;;;;;15.44;56.93;101761.19;5038342;28;20485;-79
2022/03/26 18:33:39;;;;;;;9.60;7.07;;;;;;;15.43;57.03;101762.19;5039029;28;20446;-77
2022/03/26 18:36:06;;;;;;;8.83;6.60;;;;;;;15.42;57.48;101773.13;5038668;28;20469;-78
2022/03/26 18:38:33;;;;;;;8.20;6.27;;;;;;;15.32;57.47;101775.75;5040897;28;20512;-78
2022/03/26 18:41:00;;;;;;;11.33;6.80;;;;;;;15.28;57.50;101781.56;5041831;28;21067;-78
2022/03/26 18:43:26;;;;;;;6.53;5.37;;;;;;;15.43;57.19;101770.28;5051934;28;20516;-79
2022/03/26 18:45:55;;;;;;;10.50;5.90;;;;;;;15.24;57.52;101778.25;5061648;28;20802;-77
2022/03/26 18:48:24;;;;;;;8.47;6.50;;;;;;;15.04;57.97;101788.94;5062073;28;20445;-79
2022/03/26 18:50:51;;;;;;;7.03;4.87;;;;;;;15.06;58.06;101786.09;5062133;28;20535;-80
2022/03/26 18:53:18;;;;;;;9.17;4.60;;;;;;;14.99;58.06;101780.38;5062611;28;21031;-79
2022/03/26 18:55:46;;;;;;;6.33;5.20;;;;;;;15.18;57.77;101792.28;5061678;28;20468;-79
2022/03/26 18:58:12;;;;;;;8.50;5.60;;;;;;;14.94;58.94;101788.00;5062711;28;20421;-78
2022/03/26 19:00:42;;;;;;;10.40;5.30;;;;;;;14.73;59.92;101781.78;5061920;28;20560;-78
2022/03/26 19:03:11;;;;;;;9.63;5.67;;;;;;;14.59;60.67;101791.84;5061824;28;20522;-79
2022/03/26 19:05:40;;;;;;;8.63;4.87;;;;;;;14.61;60.83;101792.56;5062060;28;20511;-78
2022/03/26 19:08:08;;;;;;;7.20;5.20;;;;;;;14.55;61.76;101782.31;5063318;28;20459;-78
2022/03/26 19:10:36;;;;;;;8.40;6.30;;;;;;;14.42;62.03;101787.84;5064411;28;20528;-78
2022/03/26 19:13:03;;;;;;;7.57;5.27;;;;;;;14.53;62.15;101791.47;5066605;28;20441;-78
2022/03/26 19:15:31;;;;;;;6.97;5.67;;;;;;;14.40;63.08;101799.72;5064242;28;20479;-77
2022/03/26 19:17:58;;;;;;;9.40;5.73;;;;;;;14.49;63.10;101793.56;5061423;28;20441;-77
2022/03/26 19:20:26;;;;;;;6.70;4.83;;;;;;;14.24;63.67;101792.94;5061855;28;21021;-78
2022/03/26 19:22:53;;;;;;;5.40;4.60;;;;;;;14.39;63.31;101792.63;5062270;28;20477;-79
2022/03/26 19:25:20;;;;;;;7.93;4.10;;;;;;;14.45;63.28;101789.44;5061970;28;20440;-78
2022/03/26 19:27:47;;;;;;;5.43;3.67;;;;;;;14.18;64.24;101793.41;5061917;28;20488;-78
2022/03/26 19:30:15;;;;;;;8.27;4.20;;;;;;;14.17;64.29;101790.88;5061470;28;20463;-79
2022/03/26 19:32:41;;;;;;;8.40;4.20;;;;;;;14.17;64.53;101788.19;5061282;28;20438;-79
2022/03/26 19:35:09;;;;;;;6.10;3.83;;;;;;;14.38;63.87;101790.94;5061296;28;20453;-78
2022/03/26 19:37:37;;;;;;;4.43;3.80;;;;;;;14.31;64.05;101788.75;5061765;28;20468;-78
2022/03/26 19:40:06;;;;;;;5.50;4.30;;;;;;;14.50;63.74;101793.44;5061035;28;21100;-79
2022/03/26 19:42:33;;;;;;;6.00;3.10;;;;;;;14.27;64.16;101795.38;5061042;28;20508;-78
2022/03/26 19:45:00;;;;;;;6.03;2.90;;;;;;;14.25;64.21;101786.59;5061576;28;20445;-79
2022/03/26 19:47:27;;;;;;;5.00;2.97;;;;;;;14.10;65.18;101795.91;5060573;28;20492;-78
2022/03/26 19:49:54;;;;;;;3.73;3.07;;;;;;;14.26;64.25;101795.50;5060084;28;20449;-77
2022/03/26 19:52:21;;;;;;;5.13;3.00;;;;;;;14.16;64.74;101790.00;5060510;28;20477;-78
2022/03/26 19:54:50;;;;;;;5.50;2.97;;;;;;;14.12;65.16;101794.78;5061431;28;20429;-79
2022/03/26 19:57:17;;;;;;;3.70;2.93;;;;;;;14.01;65.42;101800.22;5053815;28;20995;-78
2022/03/26 19:59:44;;;;;;;5.43;2.87;;;;;;;14.10;65.11;101796.75;5061321;28;20928;-79
2022/03/26 20:02:11;;;;;;;6.30;3.33;;;;;;;14.25;64.78;101788.41;5061517;28;20998;-79
2022/03/26 20:04:37;;;;;;;6.77;3.57;;;;;;;14.13;65.05;101801.03;5061544;28;20503;-78
2022/03/26 20:07:04;;;;;;;6.70;3.17;;;;;;;13.73;66.27;101805.13;5060343;28;20539;-77
2022/03/26 20:09:31;;;;;;;4.47;3.10;;;;;;;13.72;66.41;101808.78;5061496;28;20440;-78
2022/03/26 20:12:00;;;;;;;4.80;3.00;;;;;;;13.60;66.96;101807.06;5060598;28;20469;-78
2022/03/26 20:14:27;;;;;;;5.67;3.03;;;;;;;13.72;66.81;101811.47;5063611;28;20464;-78
2022/03/26 20:19:38;;;;;;;3.13;2.47;;;;;;;13.58;67.17;101814.41;5059170;28;20475;-80
2022/03/26 20:22:05;;;;;;;3.30;3.00;;;;;;;13.59;67.04;101818.78;5060856;28;20487;-79
2022/03/26 20:24:32;;;;;;;3.80;2.90;;;;;;;13.54;67.21;101808.44;5080567;28;21270;-78
2022/03/26 20:27:00;;;;;;;3.77;2.83;;;;;;;13.38;67.52;101813.28;5079037;28;20495;-78
2022/03/26 20:29:27;;;;;;;4.47;3.40;;;;;;;13.39;67.84;101817.69;5080163;28;20964;-78
2022/03/26 20:31:54;;;;;;;4.20;3.37;;;;;;;13.48;67.48;101806.22;5068304;28;20488;-78
2022/03/26 20:34:21;;;;;;;5.83;3.70;;;;;;;13.29;68.02;101817.50;5065775;28;20457;-79
2022/03/26 20:36:48;;;;;;;5.83;4.27;;;;;;;13.15;68.81;101823.97;5058556;28;20503;-78
2022/03/26 20:39:16;;;;;;;6.10;4.50;;;;;;;12.99;69.35;101818.91;5066526;28;20440;-78
2022/03/26 20:41:42;;;;;;;8.17;5.30;;;;;;;12.99;69.34;101834.19;5056868;28;20476;-78
2022/03/26 20:44:10;;;;;;;11.20;4.87;;;;;;;12.90;69.80;101834.91;5049102;28;20808;-78
2022/03/26 20:46:37;;;;;;;6.20;5.00;;;;;;;12.87;70.20;101835.97;5054636;28;20499;-78
2022/03/26 20:49:04;;;;;;;5.90;5.30;;;;;;;12.71;70.43;101833.59;5042424;28;20470;-78
2022/03/26 20:51:31;;;;;;;6.97;4.30;;;;;;;12.64;71.22;101837.72;5035665;28;20515;-78
2022/03/26 20:53:58;;;;;;;7.33;4.60;;;;;;;12.69;71.12;101831.97;5048734;28;20524;-78
2022/03/26 20:56:24;;;;;;;7.20;5.93;;;;;;;12.52;72.02;101841.31;5055126;28;20480;-78
2022/03/26 20:58:51;;;;;;;9.03;6.93;;;;;;;12.52;72.18;101841.31;5060477;28;20456;-78
2022/03/26 21:01:19;;;;;;;8.33;6.33;;;;;;;12.52;72.30;101844.84;5058721;28;20473;-79
2022/03/26 21:03:46;;;;;;;6.47;5.57;;;;;;;12.37;72.88;101845.97;5059837;28;20495;-79
2022/03/26 21:06:13;;;;;;;7.90;7.10;;;;;;;12.10;73.96;101854.19;5057710;28;20481;-78
2022/03/26 21:08:43;;;;;;;8.20;6.67;;;;;;;12.04;74.16;101852.84;5058358;28;20468;-78
2022/03/26 21:11:10;;;;;;;7.80;5.87;;;;;;;12.00;74.13;101854.03;5075083;28;20501;-78
2022/03/26 21:13:37;;;;;;;7.60;6.43;;;;;;;11.69;75.24;101857.03;5080135;28;20446;-78
2022/03/26 21:16:05;;;;;;;9.17;7.33;;;;;;;11.70;75.36;101871.31;5066870;28;20477;-78
2022/03/26 21:18:33;;;;;;;10.63;6.17;;;;;;;11.69;75.37;101859.69;5059174;28;20460;-78
2022/03/26 21:21:01;;;;;;;9.43;7.03;;;;;;;11.53;75.94;101872.47;5072867;28;20468;-79
2022/03/26 21:23:28;;;;;;;12.60;8.00;;;;;;;11.38;76.10;101873.53;5079115;28;20530;-79
2022/03/26 21:25:58;;;;;;;9.70;7.33;;;;;;;11.42;76.18;101870.56;5069177;28;21143;-78
2022/03/26 21:28:25;;;;;;;9.80;7.30;;;;;;;11.33;76.58;101871.16;5080239;28;20476;-79
2022/03/26 21:30:53;;;;;;;9.20;8.30;;;;;;;11.29;76.73;101869.66;5078589;28;20526;-78
2022/03/26 21:33:21;;;;;;;10.10;7.27;;;;;;;11.21;76.92;101869.34;5063602;28;20527;-79
2022/03/26 21:35:50;;;;;;;13.93;8.20;;;;;;;11.21;77.22;101872.00;5079147;28;20472;-79
2022/03/26 21:38:17;;;;;;;10.17;7.83;;;;;;;11.15;77.24;101862.59;5079634;28;20447;-78
2022/03/26 21:40:46;;;;;;;12.47;9.43;;;;;;;10.98;77.85;101874.44;5078905;28;20463;-78
2022/03/26 21:43:14;;;;;;;13.50;9.20;;;;;;;10.99;77.89;101883.31;5077804;28;20449;-79
2022/03/26 21:45:41;;;;;;;11.30;9.40;;;;;;;11.11;77.74;101877.16;5078275;28;20464;-79
2022/03/26 21:48:08;;;;;;;11.60;9.00;;;;;;;11.22;77.48;101881.78;5068514;28;20461;-79
2022/03/26 21:50:37;;;;;;;11.03;9.93;;;;;;;10.85;78.13;101879.75;5058851;28;20468;-78
2022/03/26 21:53:06;;;;;;;13.37;10.57;;;;;;;10.88;77.82;101886.72;5067297;28;20510;-79
2022/03/26 21:55:33;;;;;;;11.40;10.27;;;;;;;10.87;78.33;101879.66;5079021;28;20467;-78
2022/03/26 21:58:00;;;;;;;13.40;10.97;;;;;;;10.59;79.22;101873.47;5079674;28;20445;-78
2022/03/26 22:00:27;;;;;;;15.13;12.30;;;;;;;10.64;78.83;101884.72;5079661;28;20526;-78
2022/03/26 22:02:54;;;;;;;12.17;10.93;;;;;;;10.66;78.54;101885.47;5079106;28;20450;-79
2022/03/26 22:05:21;;;;;;;17.60;12.37;;;;;;;10.68;78.61;101885.38;5061797;28;20483;-78
2022/03/26 22:07:48;;;;;;;14.10;12.70;;;;;;;10.57;78.88;101880.69;5075151;28;20539;-79
2022/03/26 22:10:17;;;;;;;13.97;12.03;;;;;;;10.56;78.73;101889.69;5079280;28;20986;-78
2022/03/26 22:12:45;;;;;;;13.80;12.40;;;;;;;10.59;78.83;101891.31;5080065;28;20736;-78
2022/03/26 22:15:13;;;;;;;13.20;11.50;;;;;;;10.45;79.48;101901.09;5072008;28;20479;-78
2022/03/26 22:17:39;;;;;;;13.53;12.23;;;;;;;10.45;79.81;101878.84;5063314;28;20459;-78
2022/03/26 22:20:08;;;;;;;14.30;12.60;;;;;;;10.35;79.89;101894.63;5068178;28;20460;-79
2022/03/26 22:22:35;;;;;;;16.83;13.47;;;;;;;10.45;79.70;101884.19;5063173;28;20457;-79
2022/03/26 22:25:02;;;;;;;20.10;13.03;;;;;;;10.60;78.68;101887.69;5063707;28;20491;-79
2022/03/26 22:27:31;;;;;;;18.10;15.13;;;;;;;10.66;78.53;101896.16;5062442;28;20484;-78
2022/03/26 22:29:57;;;;;;;21.93;14.10;;;;;;;10.49;78.95;101897.25;5063489;28;20497;-79
2022/03/26 22:32:24;;;;;;;20.77;15.20;;;;;;;10.48;78.97;101887.50;5065907;28;20480;-78
2022/03/26 22:34:51;;;;;;;16.20;12.90;;;;;;;10.63;78.45;101898.19;5081072;28;20444;-79
2022/03/26 22:37:18;;;;;;;18.30;14.07;;;;;;;10.78;77.68;101899.84;5072789;28;20499;-79
2022/03/26 22:42:25;;;;;;;16.90;14.57;;;;;;;10.70;77.76;101896.81;5061634;28;20480;-78
2022/03/26 22:44:54;;;;;;;17.37;15.20;;;;;;;10.66;77.84;101904.19;5063137;28;20473;-79
2022/03/26 22:47:21;;;;;;;18.50;15.60;;;;;;;10.59;78.22;101899.31;5062133;28;20507;-79
2022/03/26 22:49:48;;;;;;;22.43;16.50;;;;;;;10.24;79.49;101913.13;5078571;28;20443;-78
2022/03/26 22:52:15;;;;;;;19.83;17.33;;;;;;;10.20;80.16;101900.91;5079295;28;20495;-79
2022/03/26 22:54:42;;;;;;;22.63;18.23;;;;;;;10.55;78.83;101906.69;5066959;28;20512;-79
2022/03/26 22:57:09;;;;;;;18.57;16.63;;;;;;;10.38;78.65;101898.91;5066917;28;20468;-78
2022/03/26 22:59:37;;;;;;;20.90;15.53;;;;;;;10.50;78.80;101893.63;5062659;28;20544;-79
2022/03/26 23:02:06;;;;;;;19.73;17.60;;;;;;;10.25;79.01;101905.00;5066409;28;20469;-78
2022/03/26 23:04:34;;;;;;;24.43;18.87;;;;;;;10.34;79.11;101909.78;5082046;28;20696;-78
2022/03/26 23:07:01;;;;;;;21.77;17.70;;;;;;;10.15;79.18;101907.41;5075897;28;20496;-79
2022/03/26 23:09:29;;;;;;;26.70;17.80;;;;;;;10.13;79.86;101903.13;5061901;28;20448;-79
2022/03/26 23:11:57;;;;;;;22.20;19.50;;;;;;;10.31;79.26;101910.00;5064192;28;20476;-79
2022/03/26 23:14:24;;;;;;;22.57;18.00;;;;;;;10.01;80.21;101915.44;5063860;28;20445;-79
2022/03/26 23:16:53;;;;;;;22.30;17.20;;;;;;;10.18;79.55;101909.88;5063402;28;21037;-79
2022/03/26 23:19:21;;;;;;;26.10;17.37;;;;;;;10.23;79.40;101914.09;5062279;28;20871;-79
2022/03/26 23:21:48;;;;;;;19.23;16.20;;;;;;;10.25;78.50;101912.19;5063735;28;20473;-79
2022/03/26 23:24:15;;;;;;;20.57;16.10;;;;;;;10.00;79.52;101905.72;5066052;28;20476;-79
2022/03/26 23:26:42;;;;;;;20.97;16.90;;;;;;;9.58;80.29;101905.59;5069505;28;20525;-79
2022/03/26 23:29:09;;;;;;;20.27;16.13;;;;;;;9.76;80.34;101908.94;5082704;28;20432;-78
2022/03/26 23:31:36;;;;;;;20.70;16.20;;;;;;;9.63;80.66;101907.97;5082214;28;20626;-79
2022/03/26 23:34:06;;;;;;;20.10;17.00;;;;;;;9.39;81.95;101902.31;5081765;28;20510;-78
2022/03/26 23:36:35;;;;;;;26.10;17.27;;;;;;;9.38;81.79;101904.13;5081577;28;20483;-77
2022/03/26 23:39:02;;;;;;;23.03;17.90;;;;;;;9.31;81.93;101902.78;5082843;28;20547;-78
2022/03/26 23:41:29;;;;;;;26.60;17.10;;;;;;;9.35;81.53;101906.97;5073075;28;20477;-77
2022/03/26 23:43:56;;;;;;;23.80;17.73;;;;;;;9.37;81.77;101905.09;5062149;28;20491;-78
2022/03/26 23:46:23;;;;;;;23.43;18.57;;;;;;;9.35;81.68;101912.31;5079039;28;20627;-77
2022/03/26 23:48:50;;;;;;;27.87;18.77;;;;;;;9.52;81.42;101907.78;5080678;28;20837;-77
2022/03/26 23:51:17;;;;;;;23.17;19.80;;;;;;;9.76;80.20;101906.28;5080732;28;21220;-78
2022/03/26 23:53:45;;;;;;;22.83;18.17;;;;;;;9.64;80.00;101908.84;5073953;28;20456;-78
2022/03/26 23:56:12;;;;;;;26.17;18.07;;;;;;;9.71;79.64;101897.69;5073820;28;20901;-78
2022/03/26 23:58:39;;;;;;;29.10;20.50;;;;;;;9.21;81.04;101898.94;5082167;28;20440;-78
